Time;durP1;ratioP1;P1;durP2;ratioP2;P2;SDS_P1;SDS_P2;PMS_P1;PMS_P2;Temp;Humidity;BMP_temperature;BMP_pressure;BME280_temperature;BME280_humidity;BME280_pressure;Samples;Min_cycle;Max_cycle;Signal;HPM_P1;HPM_P2
2022/10/31 00:02:29;;;;;;;1.40;0.77;;;;;;;16.08;43.69;99229.78;6159152;23;20152;-89
2022/10/31 00:04:56;;;;;;;1.07;0.43;;;;;;;16.03;43.88;99231.91;6185337;23;20585;-89
2022/10/31 00:07:21;;;;;;;1.97;0.70;;;;;;;16.00;44.19;99233.00;6159305;23;20167;-88
2022/10/31 00:09:47;;;;;;;3.87;0.70;;;;;;;15.85;44.02;99221.72;6159351;23;20168;-88
2022/10/31 00:12:13;;;;;;;1.67;0.57;;;;;;;15.84;43.78;99219.19;6185554;23;20184;-88
2022/10/31 00:14:39;;;;;;;3.63;0.90;;;;;;;15.80;43.90;99220.38;6159079;23;20230;-89
2022/10/31 00:17:07;;;;;;;1.80;0.67;;;;;;;15.78;44.15;99227.56;6184817;23;20148;-88
2022/10/31 00:19:33;;;;;;;2.50;1.13;;;;;;;15.83;43.92;99217.50;6159028;23;20164;-89
2022/10/31 00:21:58;;;;;;;2.67;0.80;;;;;;;15.87;43.95;99213.69;6185173;23;20152;-88
2022/10/31 00:24:23;;;;;;;6.80;1.23;;;;;;;15.82;43.83;99215.81;6185225;23;20152;-88
2022/10/31 00:26:49;;;;;;;2.07;1.00;;;;;;;15.86;44.11;99210.19;6159244;23;20196;-89
2022/10/31 00:29:14;;;;;;;2.23;0.70;;;;;;;15.78;44.67;99216.97;6185256;23;20162;-88
2022/10/31 00:31:40;;;;;;;3.97;0.90;;;;;;;15.75;46.25;99211.91;6184902;23;20479;-88
2022/10/31 00:34:08;;;;;;;8.60;2.47;;;;;;;15.83;47.50;99209.56;6185186;23;20176;-87
2022/10/31 00:36:34;;;;;;;6.13;1.77;;;;;;;15.93;46.97;99210.59;6158650;23;20182;-87
2022/10/31 00:39:00;;;;;;;2.30;0.93;;;;;;;15.93;45.10;99205.31;6185140;23;20148;-86
2022/10/31 00:41:25;;;;;;;3.50;0.90;;;;;;;15.79;44.86;99210.75;6185201;23;20154;-87
2022/10/31 00:43:50;;;;;;;3.37;0.80;;;;;;;15.76;44.64;99218.91;6184624;23;20280;-87
2022/10/31 00:46:16;;;;;;;3.10;1.03;;;;;;;15.83;44.38;99210.41;6185176;23;20236;-88
2022/10/31 00:48:42;;;;;;;5.93;0.67;;;;;;;15.74;44.38;99207.59;6185021;23;20173;-88
2022/10/31 00:51:08;;;;;;;3.30;1.23;;;;;;;15.69;44.70;99207.09;6184862;23;20254;-88
2022/10/31 00:53:34;;;;;;;2.33;1.07;;;;;;;15.67;44.66;99203.72;6159105;23;20176;-88
2022/10/31 00:55:59;;;;;;;4.03;0.90;;;;;;;15.63;44.64;99207.53;6185221;23;20193;-88
2022/10/31 00:58:25;;;;;;;2.13;1.10;;;;;;;15.61;44.74;99209.44;6184641;23;20595;-89
2022/10/31 01:00:55;;;;;;;2.90;1.00;;;;;;;15.53;44.94;99217.06;6185032;23;20152;-88
2022/10/31 01:03:27;;;;;;;3.40;1.20;;;;;;;15.54;44.96;99216.94;6185075;23;20128;-88
2022/10/31 01:06:10;;;;;;;5.93;1.40;;;;;;;15.46;45.15;99208.72;6184770;23;20161;-88
2022/10/31 01:08:36;;;;;;;3.67;1.10;;;;;;;15.46;45.28;99218.47;6185300;23;20456;-88
2022/10/31 01:11:06;;;;;;;3.43;1.30;;;;;;;15.52;45.21;99220.66;6185079;23;20228;-88
2022/10/31 01:13:33;;;;;;;2.00;0.97;;;;;;;15.46;45.25;99215.84;6159099;23;20175;-88
2022/10/31 01:16:00;;;;;;;5.37;1.30;;;;;;;15.52;45.31;99215.38;6184968;23;20177;-88
2022/10/31 01:18:26;;;;;;;1.93;0.97;;;;;;;15.55;45.53;99210.72;6185112;23;20654;-88
2022/10/31 01:21:03;;;;;;;7.13;1.20;;;;;;;15.47;45.49;99213.06;6183493;23;20158;-88
2022/10/31 01:23:28;;;;;;;6.30;1.60;;;;;;;15.47;45.70;99226.28;6158649;23;20250;-88
2022/10/31 01:26:06;;;;;;;5.93;1.03;;;;;;;15.42;45.83;99216.94;6158897;23;20246;-88
2022/10/31 01:28:32;;;;;;;1.57;0.93;;;;;;;15.38;46.65;99221.63;6185006;23;20460;-88
2022/10/31 01:31:02;;;;;;;2.90;1.20;;;;;;;15.59;47.09;99219.28;6184950;23;20158;-88
2022/10/31 01:33:27;;;;;;;4.37;1.50;;;;;;;15.66;48.38;99218.72;6185073;23;20260;-88
2022/10/31 01:35:53;;;;;;;4.90;2.03;;;;;;;15.78;49.05;99212.53;6184819;23;20641;-88
2022/10/31 01:38:22;;;;;;;5.10;1.83;;;;;;;15.95;49.20;99211.34;6183966;23;20241;-88
2022/10/31 01:40:48;;;;;;;4.30;1.77;;;;;;;16.11;49.36;99198.69;6184753;23;20237;-89
2022/10/31 01:43:14;;;;;;;7.93;1.93;;;;;;;16.38;49.00;99204.53;6158777;23;20595;-88
2022/10/31 01:45:43;;;;;;;12.77;2.30;;;;;;;16.56;48.49;99211.13;6184887;23;20152;-88
2022/10/31 01:48:19;;;;;;;5.13;1.50;;;;;;;16.68;48.17;99204.06;6160455;23;20266;-87
2022/10/31 01:50:48;;;;;;;5.07;1.63;;;;;;;16.70;48.16;99204.78;6186862;23;20152;-88
2022/10/31 01:53:16;;;;;;;6.27;2.10;;;;;;;16.76;48.12;99206.97;6186468;23;20199;-87
2022/10/31 01:55:44;;;;;;;4.60;1.73;;;;;;;16.97;47.54;99201.81;6186660;23;20153;-88
2022/10/31 01:58:19;;;;;;;5.90;2.40;;;;;;;17.11;47.33;99201.59;6160575;23;20477;-87
2022/10/31 02:00:48;;;;;;;4.43;1.60;;;;;;;17.13;47.31;99200.50;6186855;23;20193;-88
2022/10/31 02:03:19;;;;;;;4.23;1.87;;;;;;;17.28;46.94;99197.59;6160386;23;20208;-88
2022/10/31 02:05:45;;;;;;;4.50;1.70;;;;;;;17.40;46.54;99191.34;6187100;23;20453;-86
2022/10/31 02:08:18;;;;;;;4.17;2.17;;;;;;;17.46;46.41;99199.63;6186352;23;20238;-86
2022/10/31 02:10:44;;;;;;;6.10;2.10;;;;;;;17.60;46.12;99188.81;6186524;23;20140;-87
2022/10/31 02:13:11;;;;;;;4.37;1.97;;;;;;;17.61;46.10;99200.28;6160328;23;20220;-86
2022/10/31 02:15:39;;;;;;;6.90;2.60;;;;;;;17.78;45.71;99199.75;6160524;23;20155;-88
2022/10/31 02:18:06;;;;;;;4.70;1.77;;;;;;;17.94;45.11;99205.50;6186450;23;20231;-87
2022/10/31 02:21:07;;;;;;;6.70;1.90;;;;;;;17.89;45.53;99204.19;6160433;23;20251;-87
2022/10/31 02:23:38;;;;;;;5.40;1.80;;;;;;;17.92;45.21;99209.25;6160474;23;20155;-87
2022/10/31 02:26:22;;;;;;;6.07;1.80;;;;;;;18.11;44.92;99204.94;6160304;23;20216;-88
2022/10/31 02:29:02;;;;;;;4.70;1.80;;;;;;;18.29;44.64;99208.72;6186610;23;20142;-89
2022/10/31 02:31:57;;;;;;;4.10;2.00;;;;;;;18.46;44.25;99214.44;6160514;23;20153;-86
2022/10/31 02:34:37;;;;;;;4.23;1.87;;;;;;;18.64;43.61;99215.59;6166848;23;20162;-87
2022/10/31 02:37:28;;;;;;;4.87;1.57;;;;;;;18.73;43.64;99220.97;6185959;23;20284;-87
2022/10/31 02:40:10;;;;;;;5.73;2.23;;;;;;;18.75;43.13;99223.50;6157649;23;20155;-86
2022/10/31 02:42:47;;;;;;;3.27;1.73;;;;;;;18.81;43.36;99218.53;6186283;23;20197;-86
2022/10/31 02:45:28;;;;;;;7.33;1.80;;;;;;;18.92;42.71;99231.72;6185896;23;20457;-87
2022/10/31 02:47:58;;;;;;;3.67;1.73;;;;;;;18.95;42.93;99230.59;6160327;23;20165;-86
2022/10/31 02:50:29;;;;;;;4.27;1.57;;;;;;;18.99;42.67;99234.69;6160187;23;20150;-88
2022/10/31 02:52:54;;;;;;;4.30;1.77;;;;;;;19.05;42.60;99233.34;6185975;23;20186;-88
2022/10/31 02:55:22;;;;;;;6.13;2.03;;;;;;;19.10;42.46;99236.44;6185974;23;20304;-88
2022/10/31 02:57:50;;;;;;;6.17;1.93;;;;;;;19.12;42.44;99232.69;6185955;23;20209;-88
2022/10/31 03:00:16;;;;;;;6.47;1.57;;;;;;;19.18;42.18;99232.13;6186049;23;20157;-87
2022/10/31 03:03:10;;;;;;;5.53;2.00;;;;;;;19.22;42.28;99243.34;6186285;23;20143;-87
2022/10/31 03:05:44;;;;;;;4.37;2.07;;;;;;;19.25;41.98;99235.13;6186110;23;20215;-87
2022/10/31 03:08:35;;;;;;;5.50;1.70;;;;;;;19.22;42.10;99246.84;6185748;23;20139;-88
2022/10/31 03:11:06;;;;;;;6.83;2.40;;;;;;;19.16;42.23;99249.19;6139857;23;20230;-87
2022/10/31 03:13:46;;;;;;;3.17;1.60;;;;;;;19.18;42.11;99248.06;6185995;23;20174;-88
2022/10/31 03:16:28;;;;;;;10.23;1.60;;;;;;;19.12;41.95;99245.97;6185646;23;20162;-87
2022/10/31 03:19:03;;;;;;;4.67;1.97;;;;;;;19.11;42.13;99241.59;6159569;23;20216;-88
2022/10/31 03:21:50;;;;;;;4.07;1.87;;;;;;;19.12;42.32;99251.28;6159947;23;20157;-88
2022/10/31 03:24:16;;;;;;;9.20;1.80;;;;;;;19.10;42.39;99247.06;6159679;23;20142;-88
2022/10/31 03:26:47;;;;;;;8.17;2.03;;;;;;;19.07;42.14;99252.63;6185800;23;20147;-86
2022/10/31 03:29:19;;;;;;;4.20;1.70;;;;;;;18.98;42.38;99255.09;6159730;23;20153;-88
2022/10/31 03:32:06;;;;;;;7.27;2.17;;;;;;;18.90;42.28;99249.59;6185939;23;20141;-88
2022/10/31 03:34:34;;;;;;;3.13;1.37;;;;;;;18.89;42.55;99247.91;6159754;23;20554;-86
2022/10/31 03:37:04;;;;;;;3.53;1.80;;;;;;;18.97;42.47;99250.75;6159410;23;20158;-86
2022/10/31 03:39:31;;;;;;;7.20;1.83;;;;;;;18.95;42.74;99251.84;6185623;23;20214;-88
2022/10/31 03:42:02;;;;;;;4.50;2.00;;;;;;;18.89;42.75;99255.88;6185794;23;20523;-88
2022/10/31 03:44:30;;;;;;;6.20;1.97;;;;;;;18.89;42.66;99249.75;6185781;23;20146;-86
2022/10/31 03:46:59;;;;;;;6.17;2.20;;;;;;;18.90;42.93;99252.25;6185426;23;20150;-86
2022/10/31 03:49:26;;;;;;;4.67;1.70;;;;;;;18.91;42.96;99253.09;6185520;23;20245;-86
2022/10/31 03:52:11;;;;;;;4.27;1.70;;;;;;;18.91;42.56;99251.28;6185366;23;20173;-86
2022/10/31 03:54:45;;;;;;;3.80;1.87;;;;;;;18.87;42.99;99254.31;6183925;23;20574;-86
2022/10/31 03:57:23;;;;;;;3.20;1.43;;;;;;;18.85;42.96;99257.13;6159252;23;20150;-87
2022/10/31 04:00:04;;;;;;;4.77;1.93;;;;;;;18.85;43.16;99256.28;6185982;23;20492;-86
2022/10/31 04:02:32;;;;;;;4.00;1.87;;;;;;;18.87;43.06;99262.28;6185639;23;20212;-87
2022/10/31 04:04:59;;;;;;;4.40;1.80;;;;;;;18.91;42.93;99261.91;6185370;23;20159;-87
2022/10/31 04:07:30;;;;;;;3.33;1.53;;;;;;;18.88;43.03;99267.50;6185001;23;20189;-87
2022/10/31 04:09:57;;;;;;;3.07;1.53;;;;;;;18.80;43.28;99271.75;6159091;23;20157;-87
2022/10/31 04:12:25;;;;;;;8.23;1.87;;;;;;;18.80;43.26;99266.44;6159402;23;20621;-87
2022/10/31 04:14:52;;;;;;;7.20;1.67;;;;;;;18.77;43.35;99272.84;6185320;23;20161;-87
2022/10/31 04:17:21;;;;;;;7.67;2.27;;;;;;;18.76;43.31;99273.81;6185224;23;20170;-87
2022/10/31 04:19:50;;;;;;;10.67;2.33;;;;;;;18.73;43.81;99266.13;6185536;23;20146;-86
2022/10/31 04:22:15;;;;;;;4.57;2.10;;;;;;;18.68;43.43;99270.97;6185280;23;20208;-86
2022/10/31 04:24:41;;;;;;;7.33;1.67;;;;;;;18.67;43.60;99265.78;6159380;23;20226;-87
2022/10/31 04:27:07;;;;;;;3.90;1.80;;;;;;;18.67;43.75;99263.97;6185031;23;20291;-87
2022/10/31 04:29:32;;;;;;;2.60;1.10;;;;;;;18.70;43.47;99266.38;6185058;23;20158;-87
2022/10/31 04:31:57;;;;;;;6.33;1.63;;;;;;;18.73;43.68;99266.13;6185259;23;20153;-88
2022/10/31 04:34:25;;;;;;;5.47;1.57;;;;;;;18.72;43.38;99268.91;6185473;23;20153;-88
2022/10/31 04:36:53;;;;;;;4.87;1.67;;;;;;;18.73;43.39;99268.78;6185281;23;20285;-88
2022/10/31 04:39:18;;;;;;;4.37;1.90;;;;;;;18.76;43.57;99265.84;6185041;23;20229;-87
2022/10/31 04:41:44;;;;;;;9.17;2.03;;;;;;;18.70;43.58;99271.69;6184938;23;20225;-88
2022/10/31 04:44:09;;;;;;;4.97;2.13;;;;;;;18.74;43.16;99273.09;6185035;23;20177;-88
2022/10/31 04:46:35;;;;;;;3.53;1.70;;;;;;;18.81;43.44;99273.44;6185125;23;20582;-87
2022/10/31 04:49:00;;;;;;;2.87;1.27;;;;;;;18.88;43.45;99274.59;6185232;23;20150;-88
2022/10/31 04:51:25;;;;;;;8.10;1.50;;;;;;;18.83;43.29;99275.00;6159008;23;20198;-88
2022/10/31 04:53:51;;;;;;;4.83;1.60;;;;;;;18.79;43.64;99272.72;6184915;23;20182;-88
2022/10/31 04:56:16;;;;;;;7.20;1.83;;;;;;;18.80;43.34;99277.06;6158873;23;20185;-88
2022/10/31 04:58:42;;;;;;;3.93;1.73;;;;;;;18.85;43.53;99286.34;6159136;23;20154;-89
2022/10/31 05:01:07;;;;;;;16.53;2.33;;;;;;;18.94;43.62;99290.88;6158545;23;20218;-89
2022/10/31 05:03:32;;;;;;;5.90;2.07;;;;;;;18.91;43.43;99299.09;6183944;23;20154;-89
2022/10/31 05:05:58;;;;;;;3.47;1.30;;;;;;;18.99;43.31;99296.66;6158943;23;20154;-89
2022/10/31 05:08:23;;;;;;;4.37;1.33;;;;;;;19.02;43.19;99299.03;6185418;23;20154;-88
2022/10/31 05:10:49;;;;;;;4.13;1.40;;;;;;;19.11;43.17;99309.84;6185418;23;20284;-88
2022/10/31 05:13:15;;;;;;;4.83;1.53;;;;;;;19.13;42.93;99302.63;6159044;23;20239;-89
2022/10/31 05:15:40;;;;;;;5.27;1.23;;;;;;;19.30;42.85;99312.63;6185114;23;20249;-88
2022/10/31 05:18:06;;;;;;;9.33;1.60;;;;;;;19.37;42.63;99316.44;6159043;23;20573;-87
2022/10/31 05:20:31;;;;;;;3.07;1.10;;;;;;;19.35;42.57;99319.25;6158932;23;20151;-86
2022/10/31 05:22:58;;;;;;;5.90;1.63;;;;;;;19.33;42.56;99323.00;6185996;23;20153;-87
2022/10/31 05:25:26;;;;;;;4.40;1.30;;;;;;;19.35;42.92;99329.03;6160834;23;20155;-87
2022/10/31 05:27:52;;;;;;;7.43;1.83;;;;;;;19.44;42.50;99333.59;6160886;23;20154;-87
2022/10/31 05:30:21;;;;;;;3.60;1.40;;;;;;;19.48;42.61;99343.00;6160896;23;20224;-86
2022/10/31 05:32:49;;;;;;;3.17;1.30;;;;;;;19.44;42.41;99346.91;6186872;23;20513;-86
2022/10/31 05:35:17;;;;;;;5.40;1.40;;;;;;;19.44;42.70;99346.91;6186923;23;20548;-87
2022/10/31 05:37:43;;;;;;;4.03;1.80;;;;;;;19.54;42.31;99350.44;6186805;23;20480;-87
2022/10/31 05:40:10;;;;;;;2.77;1.03;;;;;;;19.56;42.23;99352.00;6186474;23;20146;-86
2022/10/31 05:42:38;;;;;;;2.27;1.30;;;;;;;19.50;42.66;99357.00;6160829;23;20155;-86
2022/10/31 05:45:04;;;;;;;4.40;1.47;;;;;;;19.62;42.36;99353.28;6161257;23;20169;-86
2022/10/31 05:47:29;;;;;;;3.80;1.33;;;;;;;19.80;41.97;99372.97;6186779;23;20493;-87
2022/10/31 05:49:55;;;;;;;3.80;1.53;;;;;;;19.78;41.78;99366.97;6186935;23;20155;-86
2022/10/31 05:52:20;;;;;;;2.70;1.20;;;;;;;19.85;42.34;99372.56;6160525;23;20190;-87
2022/10/31 05:54:46;;;;;;;5.03;1.43;;;;;;;19.90;41.86;99376.53;6186701;23;20238;-86
2022/10/31 05:57:11;;;;;;;5.57;1.73;;;;;;;19.95;42.12;99381.44;6160735;23;20158;-87
2022/10/31 05:59:36;;;;;;;3.20;1.17;;;;;;;20.02;41.83;99386.09;6186728;23;20146;-86
2022/10/31 06:02:02;;;;;;;4.30;1.30;;;;;;;20.12;41.67;99387.00;6186839;23;20175;-86
2022/10/31 06:04:27;;;;;;;2.53;0.90;;;;;;;20.23;41.39;99394.88;6160608;23;20160;-86
2022/10/31 06:06:53;;;;;;;3.70;1.10;;;;;;;20.32;41.21;99387.06;6186659;23;20174;-87
2022/10/31 06:09:19;;;;;;;1.93;1.00;;;;;;;20.37;41.16;99387.50;6186684;23;20176;-86
2022/10/31 06:11:44;;;;;;;6.33;1.33;;;;;;;20.47;40.88;99393.69;6186621;23;20147;-87
2022/10/31 06:14:09;;;;;;;3.97;1.30;;;;;;;20.57;40.47;99395.41;6160509;23;20694;-86
2022/10/31 06:16:38;;;;;;;3.53;1.53;;;;;;;20.66;40.58;99397.25;6159114;23;20236;-86
2022/10/31 06:19:03;;;;;;;4.93;1.57;;;;;;;20.66;40.47;99407.91;6185366;23;20161;-86
2022/10/31 06:21:29;;;;;;;4.60;1.63;;;;;;;20.74;40.40;99402.72;6186317;23;20154;-87
2022/10/31 06:23:54;;;;;;;2.67;1.33;;;;;;;20.82;40.07;99408.22;6185280;23;20160;-87
2022/10/31 06:26:19;;;;;;;3.50;1.13;;;;;;;20.78;40.22;99421.94;6160195;23;20150;-87
2022/10/31 06:28:45;;;;;;;3.90;1.10;;;;;;;20.83;40.40;99420.53;6159748;23;20154;-87
2022/10/31 06:31:10;;;;;;;3.33;1.27;;;;;;;20.90;40.21;99410.19;6186882;23;20150;-86
2022/10/31 06:33:36;;;;;;;2.33;0.90;;;;;;;20.90;40.00;99417.31;6185607;23;20613;-87
2022/10/31 06:36:01;;;;;;;2.20;1.20;;;;;;;21.00;39.89;99424.34;6185788;23;20154;-87
2022/10/31 06:38:27;;;;;;;3.63;1.93;;;;;;;21.10;39.88;99427.91;6158707;23;20559;-87
2022/10/31 06:40:53;;;;;;;4.13;1.43;;;;;;;21.17;39.57;99428.19;6185225;23;20208;-87
2022/10/31 06:43:20;;;;;;;7.63;1.63;;;;;;;21.16;39.33;99423.81;6158345;23;20154;-87
2022/10/31 06:45:45;;;;;;;4.23;1.60;;;;;;;20.99;39.77;99427.97;6184847;23;20150;-87
2022/10/31 06:48:11;;;;;;;4.63;1.33;;;;;;;21.05;39.76;99430.09;6158753;23;20170;-87
2022/10/31 06:50:36;;;;;;;2.83;1.50;;;;;;;20.93;39.83;99428.56;6184847;23;20566;-87
2022/10/31 06:53:01;;;;;;;3.20;1.60;;;;;;;21.04;39.93;99433.75;6159013;23;20197;-87
2022/10/31 06:55:27;;;;;;;8.13;1.67;;;;;;;21.16;39.77;99427.34;6160311;23;20543;-87
2022/10/31 06:57:54;;;;;;;4.80;1.43;;;;;;;21.17;39.39;99426.34;6160120;23;20181;-87
2022/10/31 07:00:20;;;;;;;2.87;1.50;;;;;;;21.29;39.80;99421.72;6186248;23;20158;-87
2022/10/31 07:02:54;;;;;;;8.13;1.57;;;;;;;21.30;39.30;99421.56;6186612;23;20152;-88
2022/10/31 07:05:21;;;;;;;4.27;1.43;;;;;;;21.32;39.40;99422.28;6186898;23;20185;-87
2022/10/31 07:07:46;;;;;;;5.53;1.50;;;;;;;21.27;39.25;99421.88;6160280;23;20167;-88
2022/10/31 07:10:12;;;;;;;5.47;1.80;;;;;;;21.51;39.49;99428.59;6160179;23;20292;-87
2022/10/31 07:12:37;;;;;;;2.60;1.00;;;;;;;21.39;39.37;99428.72;6185943;23;20174;-87
2022/10/31 07:15:04;;;;;;;5.73;1.43;;;;;;;21.52;38.96;99425.75;6186467;23;20162;-87
2022/10/31 07:17:29;;;;;;;3.47;1.43;;;;;;;21.73;39.12;99428.25;6159973;23;20192;-87
2022/10/31 07:19:54;;;;;;;6.03;1.70;;;;;;;21.65;38.96;99417.44;6179565;23;20174;-86
2022/10/31 07:22:20;;;;;;;6.27;1.40;;;;;;;21.62;38.97;99428.44;6184805;23;20146;-87
2022/10/31 07:24:45;;;;;;;3.90;1.30;;;;;;;21.89;38.71;99423.19;6185847;23;20214;-86
2022/10/31 07:27:10;;;;;;;3.57;1.60;;;;;;;22.04;38.41;99419.06;6185778;23;20162;-87
2022/10/31 07:29:36;;;;;;;2.93;1.37;;;;;;;22.33;38.15;99424.28;6159810;23;20154;-86
2022/10/31 07:32:01;;;;;;;2.80;1.30;;;;;;;22.63;37.58;99422.19;6159331;23;20456;-87
2022/10/31 07:34:27;;;;;;;4.13;1.33;;;;;;;22.63;37.40;99421.34;6185716;23;20640;-87
2022/10/31 07:36:52;;;;;;;4.27;1.80;;;;;;;22.50;37.49;99429.69;6185557;23;20151;-87
2022/10/31 07:39:18;;;;;;;9.13;1.33;;;;;;;22.63;37.42;99432.88;6185776;23;20225;-87
2022/10/31 07:41:43;;;;;;;3.80;1.70;;;;;;;22.71;37.06;99424.13;6185543;23;20146;-87
2022/10/31 07:44:08;;;;;;;6.50;1.60;;;;;;;22.72;37.26;99427.63;6185487;23;20372;-87
2022/10/31 07:46:34;;;;;;;3.67;1.70;;;;;;;22.65;37.16;99430.06;6184316;23;20701;-87
2022/10/31 07:48:59;;;;;;;3.33;1.20;;;;;;;22.69;37.24;99431.44;6185450;23;20266;-86
2022/10/31 07:51:25;;;;;;;3.27;1.00;;;;;;;22.86;37.88;99424.44;6185093;23;20225;-86
2022/10/31 07:53:50;;;;;;;5.17;1.90;;;;;;;23.07;36.97;99419.63;6184266;23;20209;-87
2022/10/31 07:56:15;;;;;;;3.90;1.40;;;;;;;23.27;36.89;99430.00;6184173;23;20147;-87
2022/10/31 07:58:41;;;;;;;4.03;1.53;;;;;;;23.43;36.23;99420.47;6184528;23;20181;-87
2022/10/31 08:01:06;;;;;;;3.40;1.30;;;;;;;23.46;36.87;99421.00;6185665;23;20530;-87
2022/10/31 08:03:31;;;;;;;6.53;1.70;;;;;;;23.60;35.96;99424.97;6159706;23;20601;-87
2022/10/31 08:05:57;;;;;;;4.10;1.13;;;;;;;23.74;36.55;99430.59;6185698;23;20225;-87
2022/10/31 08:08:23;;;;;;;3.03;1.33;;;;;;;23.94;35.67;99431.22;6159670;23;20233;-87
2022/10/31 08:10:49;;;;;;;3.20;1.60;;;;;;;23.91;35.50;99430.69;6185649;23;20573;-87
2022/10/31 08:13:14;;;;;;;3.73;1.30;;;;;;;24.08;36.05;99433.34;6159335;23;20192;-87
2022/10/31 08:15:41;;;;;;;6.77;1.67;;;;;;;24.18;34.65;99438.59;6185613;23;20221;-88
2022/10/31 08:18:14;;;;;;;2.77;1.13;;;;;;;24.43;34.80;99432.34;6185557;23;20229;-87
2022/10/31 08:20:41;;;;;;;2.97;1.43;;;;;;;24.45;34.91;99438.38;6159539;23;20230;-87
2022/10/31 08:23:08;;;;;;;3.47;1.17;;;;;;;24.30;34.54;99437.31;6185854;23;20566;-88
2022/10/31 08:25:34;;;;;;;6.87;1.40;;;;;;;24.42;34.50;99436.88;6159828;23;20462;-87
2022/10/31 08:28:00;;;;;;;5.37;1.57;;;;;;;24.47;34.45;99440.91;6185388;23;20531;-88
2022/10/31 08:30:28;;;;;;;3.93;1.40;;;;;;;24.64;34.35;99438.13;6185488;23;20218;-87
2022/10/31 08:33:11;;;;;;;1.90;1.00;;;;;;;24.62;34.11;99440.13;6159298;23;20252;-88
2022/10/31 08:35:36;;;;;;;3.13;1.70;;;;;;;24.69;34.16;99432.28;6185699;23;20161;-88
2022/10/31 08:38:03;;;;;;;4.87;2.00;;;;;;;24.84;34.56;99430.69;6185415;23;20530;-88
2022/10/31 08:40:31;;;;;;;2.97;1.27;;;;;;;25.10;33.42;99425.22;6185633;23;20168;-88
2022/10/31 08:42:58;;;;;;;4.50;1.73;;;;;;;25.29;34.43;99428.41;6159380;23;20147;-88
2022/10/31 08:45:23;;;;;;;4.47;1.47;;;;;;;25.57;34.34;99428.94;6184042;23;20242;-88
2022/10/31 08:47:49;;;;;;;3.70;1.53;;;;;;;25.63;32.37;99441.69;6159346;23;20241;-88
2022/10/31 08:50:14;;;;;;;3.07;1.13;;;;;;;25.71;32.76;99430.94;6185713;23;20468;-88
2022/10/31 08:52:40;;;;;;;2.27;0.90;;;;;;;25.87;32.27;99430.91;6185322;23;20182;-88
2022/10/31 08:55:06;;;;;;;2.67;1.13;;;;;;;25.84;32.69;99438.50;6159154;23;20215;-87
2022/10/31 08:57:31;;;;;;;4.27;1.60;;;;;;;26.09;32.47;99438.28;6185197;23;20232;-89
2022/10/31 08:59:56;;;;;;;4.20;1.20;;;;;;;26.21;31.90;99439.59;6159608;23;20230;-87
2022/10/31 09:02:23;;;;;;;3.97;1.00;;;;;;;26.43;32.26;99435.34;6177353;23;20245;-88
2022/10/31 09:04:51;;;;;;;5.07;1.33;;;;;;;26.51;31.71;99439.84;6184634;23;20212;-89
2022/10/31 09:07:17;;;;;;;3.90;1.20;;;;;;;26.63;31.49;99438.44;6158871;23;20166;-89
2022/10/31 09:09:44;;;;;;;3.23;2.00;;;;;;;26.62;31.85;99443.00;6183916;23;20157;-89
2022/10/31 09:12:09;;;;;;;3.17;1.30;;;;;;;26.70;31.75;99444.81;6184836;23;20352;-88
2022/10/31 09:14:36;;;;;;;6.53;1.33;;;;;;;26.96;31.48;99444.53;6185419;23;20154;-89
2022/10/31 09:17:04;;;;;;;3.90;1.20;;;;;;;27.03;32.12;99449.00;6185353;23;20156;-89
2022/10/31 09:19:30;;;;;;;6.23;1.80;;;;;;;27.13;31.21;99449.63;6184962;23;20249;-88
2022/10/31 09:21:57;;;;;;;3.73;1.10;;;;;;;27.31;31.01;99444.78;6185246;23;20174;-88
2022/10/31 09:24:24;;;;;;;4.77;1.57;;;;;;;27.58;30.82;99439.88;6185020;23;20601;-87
2022/10/31 09:26:50;;;;;;;3.40;1.00;;;;;;;27.76;30.19;99443.09;6184994;23;20158;-87
2022/10/31 09:29:17;;;;;;;5.68;1.40;;;;;;;27.66;29.77;99439.81;6158766;23;20185;-87
2022/10/31 09:31:43;;;;;;;2.67;1.38;;;;;;;27.71;30.35;99434.72;6185713;23;20233;-87
2022/10/31 09:34:10;;;;;;;6.28;1.50;;;;;;;27.99;29.89;99433.94;6183700;23;20178;-87
2022/10/31 09:36:42;;;;;;;4.63;1.30;;;;;;;28.15;29.76;99438.34;6159210;23;20154;-87
2022/10/31 09:39:09;;;;;;;5.40;1.48;;;;;;;28.11;29.75;99437.03;6184883;23;20197;-88
2022/10/31 09:42:12;;;;;;;2.92;1.38;;;;;;;28.08;30.12;99431.19;6184876;23;20150;-87
2022/10/31 09:45:04;;;;;;;3.08;1.27;;;;;;;28.36;29.65;99429.50;6158880;23;20158;-87
2022/10/31 09:47:59;;;;;;;3.78;1.40;;;;;;;28.54;29.63;99432.66;6158413;23;20497;-87
2022/10/31 09:50:51;;;;;;;2.60;1.15;;;;;;;28.67;29.05;99434.72;6184185;23;20162;-87
2022/10/31 09:53:36;;;;;;;3.88;1.40;;;;;;;28.66;29.25;99424.94;6184505;23;20497;-88
2022/10/31 09:56:07;;;;;;;3.58;1.30;;;;;;;28.70;29.19;99426.22;6185213;23;20139;-88
2022/10/31 09:58:42;;;;;;;3.13;1.25;;;;;;;28.97;28.64;99417.44;6158780;23;20478;-87
2022/10/31 10:01:38;;;;;;;7.15;1.50;;;;;;;28.97;28.65;99422.81;6183618;23;20154;-88
2022/10/31 10:04:54;;;;;;;7.05;1.50;;;;;;;28.77;29.39;99411.81;6185110;23;20285;-88
2022/10/31 10:08:03;;;;;;;4.22;1.52;;;;;;;28.77;28.81;99411.81;6094050;23;20164;-88
2022/10/31 10:10:47;;;;;;;4.25;1.27;;;;;;;28.97;28.30;99412.03;6085291;23;20243;-88
2022/10/31 10:13:40;;;;;;;5.00;1.67;;;;;;;29.12;28.90;99400.16;6096271;23;20176;-88
2022/10/31 10:16:43;;;;;;;4.35;1.42;;;;;;;29.38;28.48;99404.16;6096521;23;20152;-88
2022/10/31 10:19:17;;;;;;;3.13;1.10;;;;;;;29.55;27.77;99405.56;6096087;23;20167;-88
2022/10/31 10:21:57;;;;;;;2.78;1.00;;;;;;;29.45;27.92;99403.19;6096357;23;20151;-88
2022/10/31 10:25:10;;;;;;;3.33;1.30;;;;;;;29.32;28.33;99394.97;6096261;23;20247;-88
2022/10/31 10:28:20;;;;;;;5.45;1.38;;;;;;;29.62;27.49;99395.63;6096443;23;20243;-88
2022/10/31 10:30:54;;;;;;;7.85;1.05;;;;;;;29.61;28.04;99389.38;6071908;23;20243;-88
2022/10/31 10:33:32;;;;;;;4.18;1.73;;;;;;;29.57;27.95;99393.53;6048988;23;20191;-88
2022/10/31 10:36:12;;;;;;;7.30;1.20;;;;;;;29.62;27.55;99387.53;6096179;23;20186;-88
2022/10/31 10:38:56;;;;;;;3.83;1.42;;;;;;;29.69;27.71;99386.53;6049071;23;20179;-87
2022/10/31 10:41:30;;;;;;;3.78;1.63;;;;;;;29.89;27.28;99383.19;6095648;23;20159;-88
2022/10/31 10:43:56;;;;;;;3.33;1.20;;;;;;;29.99;27.22;99381.78;6186447;23;20206;-88
2022/10/31 10:49:40;;;;;;;4.68;1.63;;;;;;;30.35;26.27;99376.16;6184762;23;20165;-89
2022/10/31 10:52:19;;;;;;;4.88;1.42;;;;;;;30.47;27.44;99379.16;6184382;23;20547;-88
2022/10/31 10:54:56;;;;;;;2.95;1.20;;;;;;;30.61;26.51;99376.28;6186676;23;20675;-89
2022/10/31 10:57:50;;;;;;;4.30;1.38;;;;;;;30.83;26.23;99375.13;6186561;23;20138;-88
2022/10/31 11:00:27;;;;;;;2.75;0.95;;;;;;;30.67;26.51;99377.34;6186639;23;20147;-88
2022/10/31 11:02:54;;;;;;;2.50;1.10;;;;;;;30.63;26.58;99368.84;6186476;23;20170;-88
2022/10/31 11:05:40;;;;;;;2.88;1.20;;;;;;;30.52;26.75;99369.41;6186586;23;20157;-88
2022/10/31 11:08:06;;;;;;;2.85;1.42;;;;;;;30.50;26.51;99367.94;6160111;23;20473;-89
2022/10/31 11:10:33;;;;;;;3.50;1.40;;;;;;;30.43;26.99;99362.50;6186182;23;20292;-88
2022/10/31 11:13:23;;;;;;;4.32;1.38;;;;;;;30.51;26.65;99362.31;6186105;23;20182;-88
2022/10/31 11:16:11;;;;;;;6.72;1.45;;;;;;;30.25;27.07;99363.00;6186541;23;20542;-88
2022/10/31 11:18:41;;;;;;;3.65;1.50;;;;;;;30.29;27.03;99361.56;6184963;23;20158;-88
2022/10/31 11:21:26;;;;;;;3.20;1.52;;;;;;;30.05;27.07;99362.09;6186705;23;20134;-88
2022/10/31 11:24:10;;;;;;;6.60;1.90;;;;;;;30.20;26.82;99357.38;6184881;23;20154;-88
2022/10/31 11:26:37;;;;;;;5.35;1.50;;;;;;;30.04;27.25;99359.56;6161026;23;20530;-87
2022/10/31 11:29:05;;;;;;;4.00;1.83;;;;;;;30.35;26.96;99360.78;6159987;23;20224;-87
2022/10/31 11:31:34;;;;;;;4.80;1.88;;;;;;;30.55;26.76;99362.75;6160385;23;20166;-87
2022/10/31 11:34:19;;;;;;;3.47;1.40;;;;;;;30.69;26.49;99359.03;6160167;23;20268;-88
2022/10/31 11:36:45;;;;;;;3.28;1.73;;;;;;;30.87;26.49;99343.88;6160201;23;20146;-88
2022/10/31 11:39:21;;;;;;;5.03;1.98;;;;;;;30.96;26.57;99348.13;6160097;23;20178;-88
2022/10/31 11:41:49;;;;;;;2.45;1.00;;;;;;;31.17;25.77;99346.25;6186228;23;20225;-88
2022/10/31 11:44:30;;;;;;;4.78;1.10;;;;;;;31.11;25.88;99342.50;6160247;23;20146;-87
2022/10/31 11:47:05;;;;;;;5.80;1.67;;;;;;;31.18;26.49;99334.38;6160374;23;20168;-88
2022/10/31 11:49:30;;;;;;;4.90;1.88;;;;;;;31.41;26.27;99340.22;6160184;23;20316;-88
2022/10/31 11:51:58;;;;;;;5.03;1.38;;;;;;;31.43;25.79;99338.13;6186030;23;20541;-88
2022/10/31 11:54:29;;;;;;;5.18;1.73;;;;;;;31.47;25.73;99336.72;6159614;23;20222;-88